createdAt,value
2023-05-17T00:52:46.645Z,11.70
2023-05-17T01:49:23.872Z,10.80
2023-05-17T01:51:53.402Z,10.80
2023-05-17T01:54:28.188Z,10.80
2023-05-17T01:56:59.505Z,10.80
2023-05-17T01:59:31.557Z,10.70
2023-05-17T02:02:06.360Z,10.70
2023-05-17T02:04:35.878Z,10.70
2023-05-17T09:41:48.703Z,14.30
2023-05-17T09:44:16.829Z,14.30
2023-05-17T09:46:48.739Z,14.20
2023-05-17T09:49:17.220Z,14.30
2023-05-17T09:51:46.746Z,14.30
2023-05-17T09:59:18.145Z,14.40
2023-05-17T10:01:46.012Z,14.60
2023-05-17T10:04:20.713Z,14.60
2023-05-17T10:06:51.950Z,14.60
2023-05-17T10:09:21.979Z,14.50
2023-05-17T10:11:52.388Z,14.50
2023-05-17T10:14:28.851Z,14.60
2023-05-17T10:16:57.201Z,14.80
2023-05-17T10:19:25.913Z,14.80
2023-05-17T10:21:53.936Z,14.70
2023-05-17T12:44:48.278Z,16.50
2023-05-17T12:47:15.158Z,16.60
2023-05-17T12:49:53.919Z,16.80
2023-05-17T12:52:20.762Z,16.70
2023-05-17T12:54:47.567Z,17.00
2023-05-17T12:57:18.373Z,16.90
2023-05-17T12:59:49.644Z,16.70
2023-05-17T13:02:17.412Z,16.50
2023-05-17T13:04:44.372Z,16.50
2023-05-17T13:07:11.229Z,16.60
2023-05-17T13:09:47.992Z,16.90
2023-05-17T13:12:21.333Z,17.00
2023-05-17T13:17:27.389Z,17.00
2023-05-17T13:19:57.023Z,17.10
2023-05-17T13:22:25.294Z,16.90
2023-05-17T13:24:52.579Z,17.00
2023-05-17T13:27:19.533Z,17.00
2023-05-17T13:29:46.288Z,17.10
2023-05-17T13:32:15.973Z,17.30
2023-05-17T13:34:42.661Z,17.20
2023-05-17T13:37:11.628Z,17.40
2023-05-17T13:39:39.563Z,17.30
2023-05-17T13:42:06.671Z,17.30
2023-05-17T13:44:35.875Z,17.40
2023-05-17T13:49:33.189Z,17.30
2023-05-17T13:52:02.166Z,17.00
2023-05-17T13:54:28.980Z,17.10
2023-05-17T13:59:24.260Z,17.70
2023-05-17T14:01:50.976Z,17.70
2023-05-17T14:04:17.957Z,17.90
2023-05-17T18:08:26.652Z,15.60
2023-05-17T18:10:53.533Z,15.50
2023-05-17T18:15:47.603Z,15.10
2023-05-17T18:18:16.638Z,15.10
2023-05-17T18:20:43.402Z,15.00
2023-05-17T18:23:10.332Z,14.90
2023-05-17T18:25:39.279Z,14.90
2023-05-17T18:28:07.375Z,14.90
2023-05-17T18:30:37.887Z,14.90
2023-05-17T18:33:07.293Z,14.90
2023-05-17T18:35:34.154Z,14.90
2023-05-17T18:38:03.462Z,14.90
2023-05-17T18:40:30.665Z,14.90
2023-05-17T18:42:57.522Z,14.80
2023-05-17T18:45:24.306Z,14.80
2023-05-17T18:47:53.290Z,14.70
2023-05-17T18:50:20.117Z,14.70
2023-05-17T18:52:47.003Z,14.60
2023-05-17T18:55:13.801Z,14.60
2023-05-17T18:57:42.391Z,14.50
2023-05-17T19:00:09.691Z,14.40
2023-05-17T19:02:36.526Z,14.40
2023-05-17T19:05:06.364Z,14.30
2023-05-17T19:07:33.029Z,14.20
2023-05-17T19:09:59.860Z,14.20
2023-05-17T19:12:26.753Z,14.20
2023-05-17T19:14:58.166Z,14.20
2023-05-17T19:17:25.037Z,14.20
2023-05-17T19:19:51.909Z,14.10
2023-05-17T19:27:19.423Z,13.90
2023-05-17T19:29:47.141Z,14.00
2023-05-17T19:32:18.536Z,14.00
2023-05-17T19:34:47.854Z,14.00
2023-05-17T19:37:14.696Z,13.90
2023-05-17T19:39:43.861Z,13.90
2023-05-17T20:14:16.487Z,13.50
2023-05-17T21:58:28.582Z,12.30
